createdAt,value
2023-03-04T00:01:26.999Z,97808.50
2023-03-04T00:06:30.055Z,97791.53
2023-03-04T00:11:33.069Z,97788.13
2023-03-04T00:16:35.674Z,97781.34
2023-03-04T00:21:38.454Z,97769.47
2023-03-04T00:26:41.605Z,97766.88
2023-03-04T00:31:44.230Z,97771.13
2023-03-04T00:36:47.016Z,97766.06
2023-03-04T00:41:49.596Z,97760.16
2023-03-04T00:46:52.164Z,97771.06
2023-03-04T00:51:54.848Z,97764.28
2023-03-04T00:56:57.470Z,97760.88
2023-03-04T01:02:00.766Z,97759.16
2023-03-04T01:07:03.815Z,97750.66
2023-03-04T01:12:06.837Z,97748.03
2023-03-04T01:17:09.651Z,97751.38
2023-03-04T01:22:13.808Z,97747.16
2023-03-04T01:27:17.064Z,97722.56
2023-03-04T01:32:19.734Z,97737.81
2023-03-04T01:37:24.772Z,97736.13
2023-03-04T01:42:36.117Z,97724.44
2023-03-04T01:47:38.778Z,97710.09
2023-03-04T01:52:43.147Z,97716.78
2023-03-04T01:57:47.468Z,97712.53
2023-03-04T02:02:53.312Z,97691.41
2023-03-04T02:07:57.394Z,97681.22
2023-03-04T02:13:01.303Z,97674.41
2023-03-04T02:18:14.832Z,97661.69
2023-03-04T02:23:28.843Z,97660.84
2023-03-04T02:28:31.457Z,97650.63
2023-03-04T02:33:34.113Z,97664.81
2023-03-04T02:38:36.792Z,97651.34
2023-03-04T02:43:40.477Z,97644.72
2023-03-04T02:48:43.390Z,97633.59
2023-03-04T02:53:46.293Z,97635.41
2023-03-04T02:58:49.090Z,97631.22
2023-03-04T03:03:51.715Z,97634.56
2023-03-04T03:08:54.433Z,97630.94
2023-03-04T03:13:57.424Z,97619.75
2023-03-04T03:19:00.489Z,97622.91
2023-03-04T03:24:03.300Z,97598.34
2023-03-04T03:29:05.911Z,97615.38
2023-03-04T03:34:08.656Z,97606.94
2023-03-04T03:39:11.480Z,97573.34
2023-03-04T03:44:14.063Z,97581.13
2023-03-04T03:49:17.348Z,97585.44
2023-03-04T03:54:19.970Z,97553.25
2023-03-04T03:59:24.256Z,97560.88
2023-03-04T04:04:26.909Z,97532.09
2023-03-04T04:09:29.669Z,97543.88
2023-03-04T04:14:33.002Z,97540.56
2023-03-04T04:19:35.808Z,97508.38
2023-03-04T04:24:38.410Z,97516.88
2023-03-04T04:29:41.283Z,97519.38
2023-03-04T04:34:44.010Z,97515.16
2023-03-04T04:39:46.782Z,97515.16
2023-03-04T04:44:50.200Z,97513.44
2023-03-04T04:49:52.816Z,97479.47
2023-03-04T04:54:55.429Z,97486.28
2023-03-04T04:59:58.088Z,97499.75
2023-03-04T05:05:00.651Z,97477.59
2023-03-04T05:10:04.829Z,97471.50
2023-03-04T05:15:08.020Z,97472.28
2023-03-04T05:20:11.244Z,97483.25
2023-03-04T05:25:13.887Z,97495.19
2023-03-04T05:30:16.695Z,97497.09
2023-03-04T05:35:19.539Z,97494.63
2023-03-04T05:40:22.132Z,97487.72
2023-03-04T05:45:25.792Z,97473.34
2023-03-04T05:50:28.480Z,97468.28
2023-03-04T05:55:31.598Z,97456.41
2023-03-04T06:00:34.179Z,97457.91
2023-03-04T06:05:36.823Z,97452.53
2023-03-04T06:10:41.269Z,97447.03
2023-03-04T06:15:43.888Z,97441.88
2023-03-04T06:20:46.556Z,97436.50
2023-03-04T06:25:53.345Z,97421.28
2023-03-04T06:30:56.797Z,97421.81
2023-03-04T06:35:59.680Z,97422.00
2023-03-04T06:41:13.507Z,97418.31
2023-03-04T06:46:16.162Z,97420.19
2023-03-04T06:51:19.882Z,97403.97
2023-03-04T06:56:22.588Z,97383.13
2023-03-04T07:01:27.854Z,97381.59
2023-03-04T07:06:30.654Z,97366.88
2023-03-04T07:11:33.447Z,97358.31
2023-03-04T07:16:36.153Z,97326.94
2023-03-04T07:21:39.024Z,97329.56
2023-03-04T07:26:41.627Z,97333.97
2023-03-04T07:31:44.278Z,97344.66
2023-03-04T07:36:47.032Z,97340.09
2023-03-04T07:41:49.699Z,97322.47
2023-03-04T07:46:52.326Z,97322.47
2023-03-04T07:51:55.121Z,97315.53
2023-03-04T07:56:57.816Z,97320.66
2023-03-04T08:02:00.493Z,97303.09
2023-03-04T08:07:03.050Z,97310.78
2023-03-04T08:12:06.284Z,97304.03
2023-03-04T08:17:10.107Z,97298.50
2023-03-04T08:22:13.116Z,97295.28
2023-03-04T08:27:16.100Z,97265.41
2023-03-04T08:32:19.045Z,97283.84
2023-03-04T08:37:21.736Z,97272.59
2023-03-04T08:42:24.665Z,97257.97
2023-03-04T08:47:27.838Z,97234.81
2023-03-04T08:52:31.057Z,97239.75
2023-03-04T08:57:33.897Z,97241.25
2023-03-04T09:02:36.837Z,97224.63
2023-03-04T09:07:39.508Z,97222.91
2023-03-04T09:12:42.229Z,97220.75
2023-03-04T09:17:44.942Z,97212.63
2023-03-04T09:22:47.610Z,97193.69
2023-03-04T09:27:50.249Z,97183.03
2023-03-04T09:32:52.882Z,97169.31
2023-03-04T09:37:56.282Z,97161.69
2023-03-04T09:43:05.881Z,97152.31
2023-03-04T09:48:13.820Z,97131.22
2023-03-04T09:53:29.217Z,97131.28
2023-03-04T09:58:48.726Z,97126.69
2023-03-04T10:04:48.547Z,97117.00
2023-03-04T10:09:59.841Z,97102.69
2023-03-04T10:21:04.248Z,97093.97
2023-03-04T10:26:17.694Z,97077.94
2023-03-04T10:37:01.906Z,97064.34
2023-03-04T10:42:25.154Z,97062.31
2023-03-04T10:47:31.496Z,97027.25
2023-03-04T10:52:50.161Z,97003.75
2023-03-04T10:57:57.969Z,97018.66
2023-03-04T11:03:22.705Z,97021.81
2023-03-04T11:08:25.392Z,97019.09
2023-03-04T11:13:28.266Z,97010.69
2023-03-04T11:18:52.503Z,97006.00
2023-03-04T11:24:00.364Z,96991.63
2023-03-04T11:29:18.679Z,96983.25
2023-03-04T11:34:38.838Z,96971.38
2023-03-04T11:39:47.947Z,96971.56
2023-03-04T11:44:51.857Z,96960.47
2023-03-04T11:50:20.456Z,96957.75
2023-03-04T11:55:47.959Z,96945.34
2023-03-04T12:01:02.134Z,96934.00
2023-03-04T12:06:39.132Z,96932.50
2023-03-04T12:11:54.064Z,96923.75
2023-03-04T12:17:32.535Z,96912.19
2023-03-04T12:22:40.977Z,96905.75
2023-03-04T12:28:16.190Z,96905.38
2023-03-04T12:33:21.787Z,96889.41
2023-03-04T12:38:36.252Z,96877.75
2023-03-04T12:44:03.268Z,96871.75
2023-03-04T12:49:05.893Z,96868.31
2023-03-04T12:54:32.795Z,96859.91
2023-03-04T12:59:43.744Z,96840.25
2023-03-04T13:05:17.194Z,96841.41
2023-03-04T13:10:21.038Z,96825.75
2023-03-04T13:15:38.244Z,96822.38
2023-03-04T13:20:42.349Z,96805.47
2023-03-04T13:25:48.326Z,96813.03
2023-03-04T13:30:57.282Z,96799.03
2023-03-04T13:36:06.411Z,96794.25
2023-03-04T13:41:21.093Z,96790.97
2023-03-04T13:46:24.231Z,96774.44
2023-03-04T13:51:37.681Z,96766.94
2023-03-04T13:56:41.780Z,96761.72
2023-03-04T14:01:44.386Z,96754.03
2023-03-04T14:06:50.108Z,96741.53
2023-03-04T14:11:57.525Z,96743.44
2023-03-04T14:17:05.943Z,96740.00
2023-03-04T14:22:33.589Z,96733.38
2023-03-04T14:27:36.704Z,96724.22
2023-03-04T14:32:43.190Z,96693.97
2023-03-04T14:38:06.764Z,96709.78
2023-03-04T14:43:16.117Z,96687.50
2023-03-04T14:48:32.280Z,96693.72
2023-03-04T14:53:36.012Z,96685.72
2023-03-04T14:58:51.903Z,96688.97
2023-03-04T15:04:02.336Z,96681.97
2023-03-04T15:09:07.731Z,96676.06
2023-03-04T15:14:42.463Z,96678.03
2023-03-04T15:19:45.097Z,96670.22
2023-03-04T15:24:49.745Z,96666.31
2023-03-04T15:29:59.202Z,96653.56
2023-03-04T15:35:01.947Z,96663.75
2023-03-04T15:40:12.962Z,96662.00
2023-03-04T15:45:22.095Z,96659.53
2023-03-04T15:50:29.398Z,96656.25
2023-03-04T15:55:32.382Z,96653.50
2023-03-04T16:00:35.109Z,96638.19
2023-03-04T16:05:38.261Z,96634.84
2023-03-04T16:10:41.740Z,96645.16
2023-03-04T16:15:44.613Z,96636.63
2023-03-04T16:20:49.693Z,96634.84
2023-03-04T16:25:57.007Z,96626.69
2023-03-04T16:30:59.634Z,96614.00
2023-03-04T16:36:04.190Z,96618.88
2023-03-04T16:41:13.259Z,96615.44
2023-03-04T16:46:15.865Z,96602.69
2023-03-04T16:51:21.121Z,96594.22
2023-03-04T16:56:24.093Z,96584.53
2023-03-04T17:01:28.945Z,96599.09
2023-03-04T17:06:34.382Z,96587.28
2023-03-04T17:11:37.309Z,96607.47
2023-03-04T17:16:40.041Z,96603.97
2023-03-04T17:21:42.651Z,96614.63
2023-03-04T17:26:45.283Z,96606.41
2023-03-04T17:31:48.755Z,96604.88
2023-03-04T17:36:51.680Z,96603.81
2023-03-04T17:41:54.368Z,96602.78
2023-03-04T17:46:57.733Z,96600.13
2023-03-04T17:52:02.552Z,96603.66
2023-03-04T17:57:05.597Z,96605.13
2023-03-04T18:02:14.222Z,96605.28
2023-03-04T18:07:16.917Z,96596.53
2023-03-04T18:12:19.506Z,96600.59
2023-03-04T18:17:22.234Z,96594.06
2023-03-04T18:22:25.004Z,96593.13
2023-03-04T18:27:28.125Z,96602.38
2023-03-04T18:32:45.581Z,96599.81
2023-03-04T18:37:53.489Z,96602.59
2023-03-04T18:42:57.198Z,96600.06
2023-03-04T18:48:00.353Z,96595.81
2023-03-04T18:53:03.132Z,96605.09
2023-03-04T18:58:05.868Z,96605.50
2023-03-04T19:03:12.568Z,96609.06
2023-03-04T19:08:15.289Z,96612.25
2023-03-04T19:13:18.563Z,96600.56
2023-03-04T19:18:21.509Z,96605.69
2023-03-04T19:23:24.883Z,96588.94
2023-03-04T19:28:27.639Z,96610.00
2023-03-04T19:33:30.786Z,96617.59
2023-03-04T19:38:34.959Z,96607.47
2023-03-04T19:43:39.346Z,96604.09
2023-03-04T19:48:42.266Z,96606.75
2023-03-04T19:53:45.582Z,96601.81
2023-03-04T19:58:48.562Z,96604.38
2023-03-04T20:03:51.237Z,96604.44
2023-03-04T20:08:57.413Z,96601.91
2023-03-04T20:14:04.690Z,96599.13
2023-03-04T20:19:07.443Z,96593.53
2023-03-04T20:24:10.157Z,96605.41
2023-03-04T20:29:12.882Z,96598.47
2023-03-04T20:34:15.867Z,96601.91
2023-03-04T20:39:28.694Z,96595.38
2023-03-04T20:44:32.065Z,96599.38
2023-03-04T20:49:34.803Z,96597.16
2023-03-04T20:54:39.062Z,96594.53
2023-03-04T20:59:42.067Z,96593.78
2023-03-04T21:04:44.949Z,96587.84
2023-03-04T21:09:47.842Z,96594.09
2023-03-04T21:14:50.779Z,96592.25
2023-03-04T21:19:53.478Z,96590.25
2023-03-04T21:24:56.270Z,96588.38
2023-03-04T21:29:59.045Z,96593.81
2023-03-04T21:35:01.959Z,96592.97
2023-03-04T21:40:05.924Z,96594.81
2023-03-04T21:45:10.226Z,96593.09
2023-03-04T21:50:12.927Z,96588.00
2023-03-04T21:55:15.789Z,96594.09
2023-03-04T22:00:18.939Z,96573.50
2023-03-04T22:05:21.540Z,96586.88
2023-03-04T22:10:24.275Z,96574.09
2023-03-04T22:15:26.872Z,96590.19
2023-03-04T22:20:29.631Z,96589.63
2023-03-04T22:25:36.418Z,96584.63
2023-03-04T22:30:39.421Z,96593.75
2023-03-04T22:35:42.788Z,96587.81
2023-03-04T22:40:46.288Z,96587.28
2023-03-04T22:45:49.134Z,96592.94
2023-03-04T22:50:51.801Z,96591.22
2023-03-04T22:55:58.485Z,96581.28
2023-03-04T23:01:02.766Z,96585.31
2023-03-04T23:06:08.876Z,96591.44
2023-03-04T23:11:15.873Z,96586.69
2023-03-04T23:16:20.610Z,96579.09
2023-03-04T23:21:25.612Z,96583.00
2023-03-04T23:26:34.187Z,96582.13
2023-03-04T23:31:37.228Z,96580.53
2023-03-04T23:36:40.043Z,96562.81
2023-03-04T23:41:42.938Z,96567.88
2023-03-04T23:46:45.550Z,96563.88
2023-03-04T23:51:48.146Z,96562.16
2023-03-04T23:56:50.874Z,96576.53
